sensor_id;sensor_type;location;lat;lon;timestamp;P1;durP1;ratioP1;P2;durP2;ratioP2
7539;SDS011;3811;49.006;12.076;2023-07-29T00:02:05;4.33;;;3.93;;
7539;SDS011;3811;49.006;12.076;2023-07-29T00:04:32;4.23;;;3.83;;
7539;SDS011;3811;49.006;12.076;2023-07-29T00:06:59;4.00;;;3.60;;
7539;SDS011;3811;49.006;12.076;2023-07-29T00:09:28;4.10;;;3.80;;
7539;SDS011;3811;49.006;12.076;2023-07-29T00:11:54;4.67;;;3.27;;
7539;SDS011;3811;49.006;12.076;2023-07-29T00:14:22;4.57;;;3.57;;
7539;SDS011;3811;49.006;12.076;2023-07-29T00:16:49;3.63;;;3.33;;
7539;SDS011;3811;49.006;12.076;2023-07-29T00:19:16;4.30;;;3.90;;
7539;SDS011;3811;49.006;12.076;2023-07-29T00:21:45;4.00;;;3.67;;
7539;SDS011;3811;49.006;12.076;2023-07-29T00:24:12;4.20;;;3.80;;
7539;SDS011;3811;49.006;12.076;2023-07-29T00:26:40;4.40;;;4.00;;
7539;SDS011;3811;49.006;12.076;2023-07-29T00:29:08;4.40;;;4.10;;
7539;SDS011;3811;49.006;12.076;2023-07-29T00:31:35;4.57;;;4.00;;
7539;SDS011;3811;49.006;12.076;2023-07-29T00:34:02;4.00;;;3.60;;
7539;SDS011;3811;49.006;12.076;2023-07-29T00:36:29;5.03;;;4.03;;
7539;SDS011;3811;49.006;12.076;2023-07-29T00:38:57;5.40;;;4.50;;
7539;SDS011;3811;49.006;12.076;2023-07-29T00:41:24;6.00;;;4.00;;
7539;SDS011;3811;49.006;12.076;2023-07-29T00:43:53;5.13;;;4.03;;
7539;SDS011;3811;49.006;12.076;2023-07-29T00:46:21;5.57;;;4.10;;
7539;SDS011;3811;49.006;12.076;2023-07-29T00:48:49;4.60;;;4.20;;
7539;SDS011;3811;49.006;12.076;2023-07-29T00:51:16;3.93;;;3.63;;
7539;SDS011;3811;49.006;12.076;2023-07-29T00:53:43;4.10;;;3.70;;
7539;SDS011;3811;49.006;12.076;2023-07-29T00:56:11;4.53;;;4.13;;
7539;SDS011;3811;49.006;12.076;2023-07-29T00:58:39;5.30;;;4.80;;
7539;SDS011;3811;49.006;12.076;2023-07-29T01:01:07;6.97;;;4.90;;
7539;SDS011;3811;49.006;12.076;2023-07-29T01:03:34;5.33;;;4.83;;
7539;SDS011;3811;49.006;12.076;2023-07-29T01:06:05;5.60;;;4.87;;
7539;SDS011;3811;49.006;12.076;2023-07-29T01:08:42;5.27;;;4.83;;
7539;SDS011;3811;49.006;12.076;2023-07-29T01:11:16;6.60;;;5.80;;
7539;SDS011;3811;49.006;12.076;2023-07-29T01:13:57;6.67;;;5.47;;
7539;SDS011;3811;49.006;12.076;2023-07-29T01:16:30;5.93;;;5.43;;
7539;SDS011;3811;49.006;12.076;2023-07-29T01:19:01;6.90;;;5.90;;
7539;SDS011;3811;49.006;12.076;2023-07-29T01:21:33;7.20;;;5.60;;
7539;SDS011;3811;49.006;12.076;2023-07-29T01:24:04;6.67;;;6.07;;
7539;SDS011;3811;49.006;12.076;2023-07-29T01:26:31;7.20;;;6.50;;
7539;SDS011;3811;49.006;12.076;2023-07-29T01:28:58;7.10;;;6.40;;
7539;SDS011;3811;49.006;12.076;2023-07-29T01:31:27;7.70;;;7.00;;
7539;SDS011;3811;49.006;12.076;2023-07-29T01:34:01;8.23;;;6.80;;
7539;SDS011;3811;49.006;12.076;2023-07-29T01:36:35;7.83;;;6.53;;
7539;SDS011;3811;49.006;12.076;2023-07-29T01:39:08;9.20;;;7.90;;
7539;SDS011;3811;49.006;12.076;2023-07-29T01:41:38;8.60;;;7.70;;
7539;SDS011;3811;49.006;12.076;2023-07-29T01:44:07;12.47;;;8.10;;
7539;SDS011;3811;49.006;12.076;2023-07-29T01:46:35;9.40;;;8.40;;
7539;SDS011;3811;49.006;12.076;2023-07-29T01:49:03;9.63;;;7.97;;
7539;SDS011;3811;49.006;12.076;2023-07-29T01:51:30;9.93;;;8.93;;
7539;SDS011;3811;49.006;12.076;2023-07-29T01:53:57;11.20;;;9.97;;
7539;SDS011;3811;49.006;12.076;2023-07-29T01:56:26;11.27;;;10.20;;
7539;SDS011;3811;49.006;12.076;2023-07-29T01:58:55;10.37;;;9.37;;
7539;SDS011;3811;49.006;12.076;2023-07-29T02:01:22;11.67;;;10.47;;
7539;SDS011;3811;49.006;12.076;2023-07-29T02:03:49;13.30;;;11.90;;
7539;SDS011;3811;49.006;12.076;2023-07-29T02:06:20;12.90;;;11.70;;
7539;SDS011;3811;49.006;12.076;2023-07-29T02:08:48;12.33;;;11.03;;
7539;SDS011;3811;49.006;12.076;2023-07-29T02:11:15;12.73;;;11.40;;
7539;SDS011;3811;49.006;12.076;2023-07-29T02:13:43;13.20;;;11.73;;
7539;SDS011;3811;49.006;12.076;2023-07-29T02:16:11;12.33;;;11.13;;
7539;SDS011;3811;49.006;12.076;2023-07-29T02:18:38;12.87;;;11.57;;
7539;SDS011;3811;49.006;12.076;2023-07-29T02:21:05;12.23;;;10.53;;
7539;SDS011;3811;49.006;12.076;2023-07-29T02:23:32;12.03;;;10.83;;
7539;SDS011;3811;49.006;12.076;2023-07-29T02:25:59;11.97;;;10.80;;
7539;SDS011;3811;49.006;12.076;2023-07-29T02:28:27;11.73;;;10.63;;
7539;SDS011;3811;49.006;12.076;2023-07-29T02:33:47;12.93;;;10.83;;
7539;SDS011;3811;49.006;12.076;2023-07-29T02:36:15;15.23;;;11.50;;
7539;SDS011;3811;49.006;12.076;2023-07-29T02:38:43;13.57;;;12.17;;
7539;SDS011;3811;49.006;12.076;2023-07-29T02:41:10;13.17;;;11.63;;
7539;SDS011;3811;49.006;12.076;2023-07-29T02:43:38;12.63;;;11.33;;
7539;SDS011;3811;49.006;12.076;2023-07-29T02:46:06;14.20;;;11.80;;
7539;SDS011;3811;49.006;12.076;2023-07-29T02:48:33;12.40;;;11.20;;
7539;SDS011;3811;49.006;12.076;2023-07-29T02:51:01;14.27;;;11.77;;
7539;SDS011;3811;49.006;12.076;2023-07-29T02:53:30;12.53;;;11.33;;
7539;SDS011;3811;49.006;12.076;2023-07-29T02:55:56;14.33;;;11.80;;
7539;SDS011;3811;49.006;12.076;2023-07-29T02:58:23;12.27;;;11.07;;
7539;SDS011;3811;49.006;12.076;2023-07-29T03:00:51;12.50;;;11.30;;
7539;SDS011;3811;49.006;12.076;2023-07-29T03:03:18;15.27;;;12.20;;
7539;SDS011;3811;49.006;12.076;2023-07-29T03:05:45;13.37;;;11.37;;
7539;SDS011;3811;49.006;12.076;2023-07-29T03:08:14;11.70;;;9.90;;
7539;SDS011;3811;49.006;12.076;2023-07-29T03:10:41;12.77;;;11.23;;
7539;SDS011;3811;49.006;12.076;2023-07-29T03:13:08;13.47;;;11.07;;
7539;SDS011;3811;49.006;12.076;2023-07-29T03:15:35;13.20;;;11.73;;
7539;SDS011;3811;49.006;12.076;2023-07-29T03:18:02;13.47;;;11.13;;
7539;SDS011;3811;49.006;12.076;2023-07-29T03:20:30;13.07;;;11.63;;
7539;SDS011;3811;49.006;12.076;2023-07-29T03:22:57;12.07;;;10.87;;
7539;SDS011;3811;49.006;12.076;2023-07-29T03:25:25;11.90;;;10.70;;
7539;SDS011;3811;49.006;12.076;2023-07-29T03:27:52;12.93;;;11.63;;
7539;SDS011;3811;49.006;12.076;2023-07-29T03:30:19;14.93;;;11.60;;
7539;SDS011;3811;49.006;12.076;2023-07-29T03:32:47;12.70;;;10.77;;
7539;SDS011;3811;49.006;12.076;2023-07-29T03:35:14;11.73;;;10.23;;
7539;SDS011;3811;49.006;12.076;2023-07-29T03:37:42;12.40;;;10.97;;
7539;SDS011;3811;49.006;12.076;2023-07-29T03:40:09;12.47;;;11.17;;
7539;SDS011;3811;49.006;12.076;2023-07-29T03:42:38;12.70;;;11.37;;
7539;SDS011;3811;49.006;12.076;2023-07-29T03:45:05;12.20;;;10.97;;
7539;SDS011;3811;49.006;12.076;2023-07-29T03:47:32;11.57;;;10.17;;
7539;SDS011;3811;49.006;12.076;2023-07-29T03:49:59;12.97;;;10.97;;
7539;SDS011;3811;49.006;12.076;2023-07-29T03:52:26;13.20;;;11.20;;
7539;SDS011;3811;49.006;12.076;2023-07-29T03:54:53;11.03;;;9.83;;
7539;SDS011;3811;49.006;12.076;2023-07-29T03:57:21;12.40;;;10.70;;
7539;SDS011;3811;49.006;12.076;2023-07-29T03:59:49;13.93;;;11.10;;
7539;SDS011;3811;49.006;12.076;2023-07-29T04:02:16;12.07;;;10.57;;
7539;SDS011;3811;49.006;12.076;2023-07-29T04:04:43;12.47;;;11.17;;
7539;SDS011;3811;49.006;12.076;2023-07-29T04:07:12;12.87;;;10.93;;
7539;SDS011;3811;49.006;12.076;2023-07-29T04:09:40;13.73;;;11.20;;
7539;SDS011;3811;49.006;12.076;2023-07-29T04:12:08;11.97;;;10.13;;
7539;SDS011;3811;49.006;12.076;2023-07-29T04:14:35;14.07;;;11.93;;
7539;SDS011;3811;49.006;12.076;2023-07-29T04:17:04;10.93;;;9.73;;
7539;SDS011;3811;49.006;12.076;2023-07-29T04:19:31;13.93;;;11.40;;
7539;SDS011;3811;49.006;12.076;2023-07-29T04:21:59;14.20;;;10.93;;
7539;SDS011;3811;49.006;12.076;2023-07-29T04:24:26;16.40;;;13.33;;
7539;SDS011;3811;49.006;12.076;2023-07-29T04:26:53;15.63;;;13.97;;
7539;SDS011;3811;49.006;12.076;2023-07-29T04:29:20;17.60;;;15.03;;
7539;SDS011;3811;49.006;12.076;2023-07-29T04:31:47;17.97;;;14.20;;
7539;SDS011;3811;49.006;12.076;2023-07-29T04:34:16;18.60;;;14.77;;
7539;SDS011;3811;49.006;12.076;2023-07-29T04:36:43;17.50;;;13.20;;
7539;SDS011;3811;49.006;12.076;2023-07-29T04:39:10;15.83;;;13.20;;
7539;SDS011;3811;49.006;12.076;2023-07-29T04:41:37;16.70;;;14.17;;
7539;SDS011;3811;49.006;12.076;2023-07-29T04:44:04;16.90;;;13.67;;
7539;SDS011;3811;49.006;12.076;2023-07-29T04:46:32;16.07;;;13.73;;
7539;SDS011;3811;49.006;12.076;2023-07-29T04:48:59;16.80;;;13.60;;
7539;SDS011;3811;49.006;12.076;2023-07-29T04:51:28;14.63;;;12.50;;
7539;SDS011;3811;49.006;12.076;2023-07-29T04:53:56;14.13;;;12.67;;
7539;SDS011;3811;49.006;12.076;2023-07-29T04:56:24;15.50;;;12.33;;
7539;SDS011;3811;49.006;12.076;2023-07-29T04:58:51;15.67;;;14.03;;
7539;SDS011;3811;49.006;12.076;2023-07-29T05:01:19;17.93;;;14.13;;
7539;SDS011;3811;49.006;12.076;2023-07-29T05:03:46;17.43;;;13.20;;
7539;SDS011;3811;49.006;12.076;2023-07-29T05:06:13;16.43;;;13.27;;
7539;SDS011;3811;49.006;12.076;2023-07-29T05:08:41;16.83;;;13.57;;
7539;SDS011;3811;49.006;12.076;2023-07-29T05:11:08;15.53;;;13.20;;
7539;SDS011;3811;49.006;12.076;2023-07-29T05:13:35;14.63;;;12.43;;
7539;SDS011;3811;49.006;12.076;2023-07-29T05:16:03;14.00;;;12.37;;
7539;SDS011;3811;49.006;12.076;2023-07-29T05:18:32;12.30;;;11.03;;
7539;SDS011;3811;49.006;12.076;2023-07-29T05:20:58;12.93;;;11.13;;
7539;SDS011;3811;49.006;12.076;2023-07-29T05:23:26;12.67;;;11.23;;
7539;SDS011;3811;49.006;12.076;2023-07-29T05:25:54;12.37;;;10.40;;
7539;SDS011;3811;49.006;12.076;2023-07-29T05:28:22;10.73;;;9.63;;
7539;SDS011;3811;49.006;12.076;2023-07-29T05:30:50;10.20;;;8.83;;
7539;SDS011;3811;49.006;12.076;2023-07-29T05:33:18;9.17;;;8.27;;
7539;SDS011;3811;49.006;12.076;2023-07-29T05:35:44;8.23;;;7.43;;
7539;SDS011;3811;49.006;12.076;2023-07-29T05:38:13;8.87;;;8.07;;
7539;SDS011;3811;49.006;12.076;2023-07-29T05:40:40;8.53;;;7.73;;
7539;SDS011;3811;49.006;12.076;2023-07-29T05:43:09;8.50;;;7.77;;
7539;SDS011;3811;49.006;12.076;2023-07-29T05:45:36;8.43;;;7.63;;
7539;SDS011;3811;49.006;12.076;2023-07-29T05:48:04;10.17;;;7.40;;
7539;SDS011;3811;49.006;12.076;2023-07-29T05:50:31;7.40;;;6.60;;
7539;SDS011;3811;49.006;12.076;2023-07-29T05:52:57;7.17;;;6.53;;
7539;SDS011;3811;49.006;12.076;2023-07-29T05:55:25;6.90;;;6.27;;
7539;SDS011;3811;49.006;12.076;2023-07-29T05:57:54;6.53;;;5.77;;
7539;SDS011;3811;49.006;12.076;2023-07-29T06:00:24;6.67;;;6.00;;
7539;SDS011;3811;49.006;12.076;2023-07-29T06:02:51;5.93;;;5.33;;
7539;SDS011;3811;49.006;12.076;2023-07-29T06:05:20;6.47;;;5.87;;
7539;SDS011;3811;49.006;12.076;2023-07-29T06:07:47;10.57;;;5.87;;
7539;SDS011;3811;49.006;12.076;2023-07-29T06:10:15;6.43;;;5.83;;
7539;SDS011;3811;49.006;12.076;2023-07-29T06:12:44;5.53;;;5.13;;
7539;SDS011;3811;49.006;12.076;2023-07-29T06:15:11;6.20;;;5.70;;
7539;SDS011;3811;49.006;12.076;2023-07-29T06:17:40;6.30;;;5.80;;
7539;SDS011;3811;49.006;12.076;2023-07-29T06:20:07;5.30;;;4.80;;
7539;SDS011;3811;49.006;12.076;2023-07-29T06:22:34;6.00;;;5.27;;
7539;SDS011;3811;49.006;12.076;2023-07-29T06:25:02;6.10;;;5.40;;
7539;SDS011;3811;49.006;12.076;2023-07-29T06:27:29;5.53;;;5.03;;
7539;SDS011;3811;49.006;12.076;2023-07-29T06:29:56;5.73;;;5.23;;
7539;SDS011;3811;49.006;12.076;2023-07-29T06:32:23;5.57;;;5.07;;
7539;SDS011;3811;49.006;12.076;2023-07-29T06:34:52;4.73;;;4.33;;
7539;SDS011;3811;49.006;12.076;2023-07-29T06:37:19;5.20;;;4.27;;
7539;SDS011;3811;49.006;12.076;2023-07-29T06:39:46;4.77;;;4.23;;
7539;SDS011;3811;49.006;12.076;2023-07-29T06:42:14;4.50;;;3.97;;
7539;SDS011;3811;49.006;12.076;2023-07-29T06:44:41;4.00;;;3.70;;
7539;SDS011;3811;49.006;12.076;2023-07-29T06:47:10;4.03;;;3.70;;
7539;SDS011;3811;49.006;12.076;2023-07-29T06:49:38;5.17;;;4.00;;
7539;SDS011;3811;49.006;12.076;2023-07-29T06:52:06;4.37;;;3.73;;
7539;SDS011;3811;49.006;12.076;2023-07-29T06:54:33;4.33;;;3.67;;
7539;SDS011;3811;49.006;12.076;2023-07-29T06:57:01;4.17;;;3.80;;
7539;SDS011;3811;49.006;12.076;2023-07-29T06:59:28;4.13;;;3.83;;
7539;SDS011;3811;49.006;12.076;2023-07-29T07:01:54;3.90;;;3.40;;
7539;SDS011;3811;49.006;12.076;2023-07-29T07:04:22;4.93;;;3.60;;
7539;SDS011;3811;49.006;12.076;2023-07-29T07:06:49;4.13;;;3.23;;
7539;SDS011;3811;49.006;12.076;2023-07-29T07:09:17;7.53;;;3.47;;
7539;SDS011;3811;49.006;12.076;2023-07-29T07:11:44;3.90;;;3.60;;
7539;SDS011;3811;49.006;12.076;2023-07-29T07:14:12;3.90;;;3.20;;
7539;SDS011;3811;49.006;12.076;2023-07-29T07:16:39;3.70;;;3.17;;
7539;SDS011;3811;49.006;12.076;2023-07-29T07:19:06;5.03;;;3.60;;
7539;SDS011;3811;49.006;12.076;2023-07-29T07:21:33;8.10;;;3.60;;
7539;SDS011;3811;49.006;12.076;2023-07-29T07:24:00;4.30;;;3.80;;
7539;SDS011;3811;49.006;12.076;2023-07-29T07:26:29;4.33;;;3.50;;
7539;SDS011;3811;49.006;12.076;2023-07-29T07:28:56;4.27;;;3.63;;
7539;SDS011;3811;49.006;12.076;2023-07-29T07:31:23;6.43;;;3.07;;
7539;SDS011;3811;49.006;12.076;2023-07-29T07:33:50;4.00;;;3.70;;
7539;SDS011;3811;49.006;12.076;2023-07-29T07:36:18;4.13;;;3.57;;
7539;SDS011;3811;49.006;12.076;2023-07-29T07:38:45;4.23;;;3.53;;
7539;SDS011;3811;49.006;12.076;2023-07-29T07:41:12;4.90;;;3.33;;
7539;SDS011;3811;49.006;12.076;2023-07-29T07:43:41;3.60;;;3.30;;
7539;SDS011;3811;49.006;12.076;2023-07-29T07:46:08;5.70;;;3.50;;
7539;SDS011;3811;49.006;12.076;2023-07-29T07:48:35;3.63;;;3.33;;
7539;SDS011;3811;49.006;12.076;2023-07-29T07:51:09;7.27;;;3.57;;
7539;SDS011;3811;49.006;12.076;2023-07-29T07:53:36;3.07;;;2.77;;
7539;SDS011;3811;49.006;12.076;2023-07-29T07:56:03;7.67;;;3.03;;
7539;SDS011;3811;49.006;12.076;2023-07-29T07:58:31;4.77;;;3.37;;
7539;SDS011;3811;49.006;12.076;2023-07-29T08:01:02;3.00;;;2.80;;
7539;SDS011;3811;49.006;12.076;2023-07-29T08:03:29;5.43;;;3.10;;
7539;SDS011;3811;49.006;12.076;2023-07-29T08:05:56;5.80;;;2.97;;
7539;SDS011;3811;49.006;12.076;2023-07-29T08:08:24;3.40;;;3.20;;
7539;SDS011;3811;49.006;12.076;2023-07-29T08:10:52;3.47;;;3.00;;
7539;SDS011;3811;49.006;12.076;2023-07-29T08:13:19;3.10;;;2.80;;
7539;SDS011;3811;49.006;12.076;2023-07-29T08:15:47;3.63;;;3.33;;
7539;SDS011;3811;49.006;12.076;2023-07-29T08:18:16;5.33;;;3.67;;
7539;SDS011;3811;49.006;12.076;2023-07-29T08:20:51;6.17;;;4.40;;
7539;SDS011;3811;49.006;12.076;2023-07-29T08:23:19;8.63;;;4.07;;
7539;SDS011;3811;49.006;12.076;2023-07-29T08:25:50;4.20;;;3.63;;
7539;SDS011;3811;49.006;12.076;2023-07-29T08:28:18;7.23;;;4.07;;
7539;SDS011;3811;49.006;12.076;2023-07-29T08:30:45;4.07;;;3.63;;
7539;SDS011;3811;49.006;12.076;2023-07-29T08:33:12;5.07;;;4.20;;
7539;SDS011;3811;49.006;12.076;2023-07-29T08:38:51;4.03;;;3.63;;
7539;SDS011;3811;49.006;12.076;2023-07-29T08:41:19;5.87;;;4.17;;
7539;SDS011;3811;49.006;12.076;2023-07-29T08:43:52;4.20;;;3.80;;
7539;SDS011;3811;49.006;12.076;2023-07-29T08:46:23;4.83;;;3.50;;
7539;SDS011;3811;49.006;12.076;2023-07-29T08:48:50;4.47;;;3.77;;
7539;SDS011;3811;49.006;12.076;2023-07-29T08:51:17;6.03;;;3.17;;
7539;SDS011;3811;49.006;12.076;2023-07-29T08:53:47;3.37;;;3.07;;
7539;SDS011;3811;49.006;12.076;2023-07-29T08:56:16;5.27;;;3.53;;
7539;SDS011;3811;49.006;12.076;2023-07-29T08:58:43;3.67;;;3.37;;
7539;SDS011;3811;49.006;12.076;2023-07-29T09:01:10;6.23;;;3.83;;
7539;SDS011;3811;49.006;12.076;2023-07-29T09:03:38;4.10;;;3.57;;
7539;SDS011;3811;49.006;12.076;2023-07-29T09:06:05;3.57;;;3.37;;
7539;SDS011;3811;49.006;12.076;2023-07-29T09:08:32;4.43;;;3.83;;
7539;SDS011;3811;49.006;12.076;2023-07-29T09:11:00;5.10;;;4.60;;
7539;SDS011;3811;49.006;12.076;2023-07-29T09:13:28;4.70;;;4.30;;
7539;SDS011;3811;49.006;12.076;2023-07-29T09:15:56;4.80;;;4.03;;
7539;SDS011;3811;49.006;12.076;2023-07-29T09:18:25;4.50;;;4.10;;
7539;SDS011;3811;49.006;12.076;2023-07-29T09:20:53;5.00;;;4.57;;
7539;SDS011;3811;49.006;12.076;2023-07-29T09:23:20;5.43;;;4.17;;
7539;SDS011;3811;49.006;12.076;2023-07-29T09:25:48;5.30;;;4.33;;
7539;SDS011;3811;49.006;12.076;2023-07-29T09:28:15;4.67;;;4.13;;
7539;SDS011;3811;49.006;12.076;2023-07-29T09:30:45;3.87;;;3.47;;
7539;SDS011;3811;49.006;12.076;2023-07-29T09:33:13;3.60;;;3.30;;
7539;SDS011;3811;49.006;12.076;2023-07-29T09:35:40;3.63;;;3.33;;
7539;SDS011;3811;49.006;12.076;2023-07-29T09:38:07;2.80;;;2.60;;
7539;SDS011;3811;49.006;12.076;2023-07-29T09:40:35;3.83;;;2.60;;
7539;SDS011;3811;49.006;12.076;2023-07-29T09:43:03;2.33;;;2.23;;
7539;SDS011;3811;49.006;12.076;2023-07-29T09:45:32;2.73;;;2.53;;
7539;SDS011;3811;49.006;12.076;2023-07-29T09:48:02;2.63;;;2.27;;
7539;SDS011;3811;49.006;12.076;2023-07-29T09:50:30;2.60;;;2.40;;
7539;SDS011;3811;49.006;12.076;2023-07-29T09:52:57;2.67;;;2.47;;
7539;SDS011;3811;49.006;12.076;2023-07-29T09:55:25;3.10;;;2.60;;
7539;SDS011;3811;49.006;12.076;2023-07-29T09:57:53;3.60;;;2.70;;
7539;SDS011;3811;49.006;12.076;2023-07-29T10:00:20;2.30;;;2.13;;
7539;SDS011;3811;49.006;12.076;2023-07-29T10:02:47;3.40;;;2.87;;
7539;SDS011;3811;49.006;12.076;2023-07-29T10:05:16;4.27;;;2.90;;
7539;SDS011;3811;49.006;12.076;2023-07-29T10:07:43;2.80;;;2.60;;
7539;SDS011;3811;49.006;12.076;2023-07-29T10:10:12;8.53;;;3.53;;
7539;SDS011;3811;49.006;12.076;2023-07-29T10:12:39;6.93;;;3.47;;
7539;SDS011;3811;49.006;12.076;2023-07-29T10:15:08;6.17;;;3.50;;
7539;SDS011;3811;49.006;12.076;2023-07-29T10:17:35;4.67;;;3.57;;
7539;SDS011;3811;49.006;12.076;2023-07-29T10:20:04;6.00;;;4.10;;
7539;SDS011;3811;49.006;12.076;2023-07-29T10:22:36;5.53;;;3.80;;
7539;SDS011;3811;49.006;12.076;2023-07-29T10:25:03;4.20;;;3.80;;
7539;SDS011;3811;49.006;12.076;2023-07-29T10:27:35;3.93;;;3.63;;
7539;SDS011;3811;49.006;12.076;2023-07-29T10:30:10;6.43;;;4.00;;
7539;SDS011;3811;49.006;12.076;2023-07-29T10:32:38;3.93;;;3.50;;
7539;SDS011;3811;49.006;12.076;2023-07-29T10:35:07;4.33;;;3.93;;
7539;SDS011;3811;49.006;12.076;2023-07-29T10:37:36;4.10;;;3.70;;
7539;SDS011;3811;49.006;12.076;2023-07-29T10:40:05;7.43;;;4.07;;
7539;SDS011;3811;49.006;12.076;2023-07-29T10:42:34;4.40;;;4.00;;
7539;SDS011;3811;49.006;12.076;2023-07-29T10:45:16;4.90;;;3.73;;
7539;SDS011;3811;49.006;12.076;2023-07-29T10:47:45;4.30;;;3.90;;
7539;SDS011;3811;49.006;12.076;2023-07-29T10:50:16;4.13;;;3.73;;
7539;SDS011;3811;49.006;12.076;2023-07-29T10:52:48;4.47;;;3.83;;
7539;SDS011;3811;49.006;12.076;2023-07-29T10:55:24;4.17;;;3.80;;
7539;SDS011;3811;49.006;12.076;2023-07-29T10:57:51;5.40;;;3.30;;
7539;SDS011;3811;49.006;12.076;2023-07-29T11:00:19;4.93;;;3.90;;
7539;SDS011;3811;49.006;12.076;2023-07-29T11:02:56;2.90;;;2.70;;
7539;SDS011;3811;49.006;12.076;2023-07-29T11:05:25;2.90;;;2.70;;
7539;SDS011;3811;49.006;12.076;2023-07-29T11:07:54;3.10;;;2.60;;
7539;SDS011;3811;49.006;12.076;2023-07-29T11:10:21;2.80;;;2.60;;
7539;SDS011;3811;49.006;12.076;2023-07-29T11:12:48;2.80;;;2.60;;
7539;SDS011;3811;49.006;12.076;2023-07-29T11:15:17;2.80;;;2.60;;
7539;SDS011;3811;49.006;12.076;2023-07-29T11:17:48;3.20;;;3.00;;
7539;SDS011;3811;49.006;12.076;2023-07-29T11:20:17;3.23;;;2.87;;
7539;SDS011;3811;49.006;12.076;2023-07-29T11:22:45;3.73;;;3.40;;
7539;SDS011;3811;49.006;12.076;2023-07-29T11:25:14;3.73;;;3.33;;
7539;SDS011;3811;49.006;12.076;2023-07-29T11:27:42;3.67;;;3.37;;
7539;SDS011;3811;49.006;12.076;2023-07-29T11:30:10;3.90;;;3.50;;
7539;SDS011;3811;49.006;12.076;2023-07-29T11:32:38;3.30;;;3.00;;
7539;SDS011;3811;49.006;12.076;2023-07-29T11:35:06;3.00;;;2.80;;
7539;SDS011;3811;49.006;12.076;2023-07-29T11:37:35;3.13;;;2.93;;
7539;SDS011;3811;49.006;12.076;2023-07-29T11:40:03;2.90;;;2.70;;
7539;SDS011;3811;49.006;12.076;2023-07-29T11:42:33;3.40;;;2.67;;
7539;SDS011;3811;49.006;12.076;2023-07-29T11:45:01;2.70;;;2.50;;
7539;SDS011;3811;49.006;12.076;2023-07-29T11:47:29;4.13;;;2.47;;
7539;SDS011;3811;49.006;12.076;2023-07-29T11:49:58;2.67;;;2.47;;
7539;SDS011;3811;49.006;12.076;2023-07-29T11:52:25;2.17;;;2.03;;
7539;SDS011;3811;49.006;12.076;2023-07-29T11:54:54;2.20;;;2.10;;
7539;SDS011;3811;49.006;12.076;2023-07-29T11:57:21;2.43;;;2.23;;
7539;SDS011;3811;49.006;12.076;2023-07-29T11:59:49;2.07;;;1.97;;
7539;SDS011;3811;49.006;12.076;2023-07-29T12:02:17;2.20;;;2.00;;
7539;SDS011;3811;49.006;12.076;2023-07-29T12:04:46;2.23;;;2.07;;
7539;SDS011;3811;49.006;12.076;2023-07-29T12:07:14;1.93;;;1.83;;
7539;SDS011;3811;49.006;12.076;2023-07-29T12:09:43;2.27;;;2.10;;
7539;SDS011;3811;49.006;12.076;2023-07-29T12:12:11;4.43;;;2.30;;
7539;SDS011;3811;49.006;12.076;2023-07-29T12:14:38;2.30;;;2.20;;
7539;SDS011;3811;49.006;12.076;2023-07-29T12:17:06;2.07;;;1.97;;
7539;SDS011;3811;49.006;12.076;2023-07-29T12:19:33;2.00;;;1.90;;
7539;SDS011;3811;49.006;12.076;2023-07-29T12:22:02;1.70;;;1.60;;
7539;SDS011;3811;49.006;12.076;2023-07-29T12:24:30;4.97;;;2.50;;
7539;SDS011;3811;49.006;12.076;2023-07-29T12:26:57;2.60;;;2.13;;
7539;SDS011;3811;49.006;12.076;2023-07-29T12:29:25;1.70;;;1.60;;
7539;SDS011;3811;49.006;12.076;2023-07-29T12:31:57;2.47;;;1.93;;
7539;SDS011;3811;49.006;12.076;2023-07-29T12:34:26;1.60;;;1.50;;
7539;SDS011;3811;49.006;12.076;2023-07-29T12:36:55;1.73;;;1.63;;
7539;SDS011;3811;49.006;12.076;2023-07-29T12:39:23;1.90;;;1.80;;
7539;SDS011;3811;49.006;12.076;2023-07-29T12:41:52;1.90;;;1.80;;
7539;SDS011;3811;49.006;12.076;2023-07-29T12:44:19;1.90;;;1.80;;
7539;SDS011;3811;49.006;12.076;2023-07-29T12:46:47;2.33;;;1.67;;
7539;SDS011;3811;49.006;12.076;2023-07-29T12:49:14;1.97;;;1.87;;
7539;SDS011;3811;49.006;12.076;2023-07-29T12:51:42;3.50;;;1.70;;
7539;SDS011;3811;49.006;12.076;2023-07-29T12:54:09;1.70;;;1.60;;
7539;SDS011;3811;49.006;12.076;2023-07-29T12:56:36;1.60;;;1.50;;
7539;SDS011;3811;49.006;12.076;2023-07-29T12:59:04;1.60;;;1.50;;
7539;SDS011;3811;49.006;12.076;2023-07-29T13:01:32;1.67;;;1.57;;
7539;SDS011;3811;49.006;12.076;2023-07-29T13:03:59;2.33;;;1.60;;
7539;SDS011;3811;49.006;12.076;2023-07-29T13:06:26;1.60;;;1.50;;
7539;SDS011;3811;49.006;12.076;2023-07-29T13:08:55;1.63;;;1.53;;
7539;SDS011;3811;49.006;12.076;2023-07-29T13:11:22;1.80;;;1.70;;
7539;SDS011;3811;49.006;12.076;2023-07-29T13:13:49;2.73;;;1.90;;
7539;SDS011;3811;49.006;12.076;2023-07-29T13:16:16;1.87;;;1.77;;
7539;SDS011;3811;49.006;12.076;2023-07-29T13:18:43;2.13;;;1.67;;
7539;SDS011;3811;49.006;12.076;2023-07-29T13:21:11;1.93;;;1.83;;
7539;SDS011;3811;49.006;12.076;2023-07-29T13:23:38;2.00;;;1.90;;
7539;SDS011;3811;49.006;12.076;2023-07-29T13:26:07;1.90;;;1.80;;
7539;SDS011;3811;49.006;12.076;2023-07-29T13:28:33;1.83;;;1.63;;
7539;SDS011;3811;49.006;12.076;2023-07-29T13:31:00;2.03;;;1.87;;
7539;SDS011;3811;49.006;12.076;2023-07-29T13:33:28;2.17;;;1.77;;
7539;SDS011;3811;49.006;12.076;2023-07-29T13:35:59;1.77;;;1.67;;
7539;SDS011;3811;49.006;12.076;2023-07-29T13:38:27;1.47;;;1.37;;
7539;SDS011;3811;49.006;12.076;2023-07-29T13:40:54;1.77;;;1.67;;
7539;SDS011;3811;49.006;12.076;2023-07-29T13:43:22;1.50;;;1.40;;
7539;SDS011;3811;49.006;12.076;2023-07-29T13:45:49;2.00;;;1.90;;
7539;SDS011;3811;49.006;12.076;2023-07-29T13:48:17;1.87;;;1.53;;
7539;SDS011;3811;49.006;12.076;2023-07-29T13:50:44;1.80;;;1.70;;
7539;SDS011;3811;49.006;12.076;2023-07-29T13:53:11;1.70;;;1.60;;
7539;SDS011;3811;49.006;12.076;2023-07-29T13:55:38;1.80;;;1.70;;
7539;SDS011;3811;49.006;12.076;2023-07-29T13:58:06;2.27;;;1.63;;
7539;SDS011;3811;49.006;12.076;2023-07-29T14:00:34;1.73;;;1.63;;
7539;SDS011;3811;49.006;12.076;2023-07-29T14:03:01;1.87;;;1.67;;
7539;SDS011;3811;49.006;12.076;2023-07-29T14:05:29;1.33;;;1.33;;
7539;SDS011;3811;49.006;12.076;2023-07-29T14:07:56;1.63;;;1.53;;
7539;SDS011;3811;49.006;12.076;2023-07-29T14:10:23;1.90;;;1.80;;
7539;SDS011;3811;49.006;12.076;2023-07-29T14:12:51;1.63;;;1.53;;
7539;SDS011;3811;49.006;12.076;2023-07-29T14:15:18;1.80;;;1.70;;
7539;SDS011;3811;49.006;12.076;2023-07-29T14:17:47;1.70;;;1.60;;
7539;SDS011;3811;49.006;12.076;2023-07-29T14:20:14;1.43;;;1.33;;
7539;SDS011;3811;49.006;12.076;2023-07-29T14:22:41;1.57;;;1.40;;
7539;SDS011;3811;49.006;12.076;2023-07-29T14:25:08;1.70;;;1.60;;
7539;SDS011;3811;49.006;12.076;2023-07-29T14:27:35;1.80;;;1.70;;
7539;SDS011;3811;49.006;12.076;2023-07-29T14:30:02;1.47;;;1.37;;
7539;SDS011;3811;49.006;12.076;2023-07-29T14:32:29;1.57;;;1.50;;
7539;SDS011;3811;49.006;12.076;2023-07-29T14:34:58;2.00;;;1.40;;
7539;SDS011;3811;49.006;12.076;2023-07-29T14:37:25;1.83;;;1.50;;
7539;SDS011;3811;49.006;12.076;2023-07-29T14:39:52;1.63;;;1.50;;
7539;SDS011;3811;49.006;12.076;2023-07-29T14:42:19;1.73;;;1.63;;
7539;SDS011;3811;49.006;12.076;2023-07-29T14:44:47;1.57;;;1.30;;
7539;SDS011;3811;49.006;12.076;2023-07-29T14:47:14;1.63;;;1.50;;
7539;SDS011;3811;49.006;12.076;2023-07-29T14:49:41;1.37;;;1.30;;
7539;SDS011;3811;49.006;12.076;2023-07-29T14:52:10;1.50;;;1.40;;
7539;SDS011;3811;49.006;12.076;2023-07-29T14:54:37;1.40;;;1.30;;
7539;SDS011;3811;49.006;12.076;2023-07-29T14:57:04;1.90;;;1.70;;
7539;SDS011;3811;49.006;12.076;2023-07-29T14:59:33;1.30;;;1.23;;
7539;SDS011;3811;49.006;12.076;2023-07-29T15:02:00;1.17;;;1.17;;
7539;SDS011;3811;49.006;12.076;2023-07-29T15:04:27;1.23;;;1.23;;
7539;SDS011;3811;49.006;12.076;2023-07-29T15:06:54;1.47;;;1.37;;